createdAt,value
2024-04-24T00:00:18.787Z,62.75
2024-04-24T00:02:47.540Z,62.90
2024-04-24T00:05:15.667Z,63.23
2024-04-24T00:07:43.687Z,63.24
2024-04-24T00:10:11.736Z,63.32
2024-04-24T00:12:39.461Z,63.69
2024-04-24T00:15:07.554Z,64.02
2024-04-24T00:17:35.522Z,63.35
2024-04-24T00:20:03.964Z,63.86
2024-04-24T00:22:32.084Z,64.21
2024-04-24T00:25:00.438Z,64.20
2024-04-24T00:27:29.253Z,64.15
2024-04-24T00:29:57.212Z,65.25
2024-04-24T00:32:25.746Z,65.46
2024-04-24T00:34:53.739Z,66.33
2024-04-24T00:37:21.733Z,65.70
2024-04-24T00:39:50.060Z,66.19
2024-04-24T00:42:21.650Z,66.94
2024-04-24T00:44:50.246Z,67.49
2024-04-24T00:47:21.116Z,67.47
2024-04-24T00:49:50.603Z,67.60
2024-04-24T00:52:19.085Z,67.82
2024-04-24T00:54:47.546Z,67.95
2024-04-24T00:57:16.229Z,68.30
2024-04-24T00:59:44.515Z,68.21
2024-04-24T01:02:12.750Z,68.29
2024-04-24T01:04:40.719Z,69.30
2024-04-24T01:07:08.662Z,68.98
2024-04-24T01:09:37.262Z,69.28
2024-04-24T01:12:05.444Z,69.35
2024-04-24T01:14:33.791Z,69.40
2024-04-24T01:17:05.937Z,69.54
2024-04-24T01:19:44.910Z,69.89
2024-04-24T01:22:41.159Z,69.91
2024-04-24T01:25:21.805Z,69.76
2024-04-24T01:27:50.470Z,70.28
2024-04-24T01:30:18.396Z,70.17
2024-04-24T01:32:46.336Z,70.43
2024-04-24T01:35:14.269Z,70.18
2024-04-24T01:37:42.404Z,70.48
2024-04-24T01:40:10.694Z,70.49
2024-04-24T01:42:39.007Z,70.50
2024-04-24T01:45:07.119Z,71.05
2024-04-24T01:47:35.081Z,70.98
2024-04-24T01:50:03.255Z,70.89
2024-04-24T01:52:31.921Z,71.03
2024-04-24T01:54:59.855Z,71.19
2024-04-24T01:57:28.348Z,71.50
2024-04-24T01:59:56.211Z,71.53
2024-04-24T02:02:24.255Z,71.78
2024-04-24T02:04:52.550Z,72.28
2024-04-24T02:07:20.587Z,72.67
2024-04-24T02:09:48.488Z,73.02
2024-04-24T02:12:17.460Z,73.22
2024-04-24T02:14:46.032Z,73.29
2024-04-24T02:17:14.268Z,73.61
2024-04-24T02:19:43.653Z,74.27
2024-04-24T02:22:11.690Z,74.40
2024-04-24T02:24:58.748Z,74.58
2024-04-24T02:27:26.829Z,74.94
2024-04-24T02:29:56.816Z,75.09
2024-04-24T02:32:25.250Z,75.76
2024-04-24T02:34:53.300Z,75.77
2024-04-24T02:37:21.373Z,75.86
2024-04-24T02:39:49.870Z,76.09
2024-04-24T02:42:17.828Z,76.32
2024-04-24T02:44:45.713Z,76.38
2024-04-24T02:47:14.260Z,76.33
2024-04-24T02:49:42.129Z,76.66
2024-04-24T02:52:10.400Z,76.53
2024-04-24T02:54:38.672Z,76.60
2024-04-24T02:57:06.639Z,76.61
2024-04-24T02:59:34.637Z,76.49
2024-04-24T03:02:02.601Z,75.91
2024-04-24T03:04:31.045Z,75.92
2024-04-24T03:06:58.943Z,75.36
2024-04-24T03:09:27.121Z,75.11
2024-04-24T03:11:55.077Z,75.07
2024-04-24T03:14:23.149Z,75.01
2024-04-24T03:16:51.542Z,74.79
2024-04-24T03:19:19.512Z,74.72
2024-04-24T03:21:47.449Z,74.23
2024-04-24T03:24:15.346Z,75.00
2024-04-24T03:26:43.328Z,75.04
2024-04-24T03:29:11.587Z,74.87
2024-04-24T03:31:39.735Z,74.82
2024-04-24T03:34:08.042Z,74.93
2024-04-24T03:36:35.930Z,74.99
2024-04-24T03:39:04.528Z,75.64
2024-04-24T03:41:33.148Z,75.45
2024-04-24T03:44:01.180Z,76.33
2024-04-24T03:46:29.112Z,75.49
2024-04-24T03:48:58.824Z,75.92
2024-04-24T03:51:26.916Z,76.01
2024-04-24T03:53:55.186Z,75.94
2024-04-24T03:56:23.514Z,75.71
2024-04-24T03:58:51.463Z,76.24
2024-04-24T04:01:19.429Z,74.41
2024-04-24T04:03:47.584Z,73.88
2024-04-24T04:06:15.661Z,72.75
2024-04-24T04:08:43.743Z,70.79
2024-04-24T04:11:11.783Z,70.23
2024-04-24T04:13:40.055Z,67.09
2024-04-24T04:16:08.020Z,65.64
2024-04-24T04:18:36.256Z,63.81
2024-04-24T04:21:04.512Z,62.14
2024-04-24T04:23:32.464Z,60.15
2024-04-24T04:26:00.486Z,59.27
2024-04-24T04:28:28.806Z,58.02
2024-04-24T04:30:57.043Z,55.74
2024-04-24T04:33:28.140Z,54.84
2024-04-24T04:35:56.214Z,53.60
2024-04-24T04:38:24.229Z,53.00
2024-04-24T04:40:52.103Z,52.89
2024-04-24T04:43:22.900Z,50.72
2024-04-24T04:45:52.171Z,49.91
2024-04-24T04:48:21.315Z,49.12
2024-04-24T04:50:49.358Z,48.10
2024-04-24T04:53:17.409Z,47.17
2024-04-24T04:55:45.677Z,45.99
2024-04-24T04:58:13.736Z,44.99
2024-04-24T05:00:41.964Z,44.61
2024-04-24T05:03:09.954Z,43.84
2024-04-24T05:05:37.963Z,43.25
2024-04-24T05:08:06.640Z,42.73
2024-04-24T05:10:34.489Z,42.00
2024-04-24T05:13:02.704Z,40.88
2024-04-24T05:15:30.722Z,40.14
2024-04-24T05:17:59.019Z,39.84
2024-04-24T05:20:27.054Z,39.51
2024-04-24T05:23:02.075Z,39.56
2024-04-24T05:25:31.012Z,39.12
2024-04-24T05:28:17.728Z,38.36
2024-04-24T05:30:45.777Z,36.34
2024-04-24T05:33:14.319Z,36.13
2024-04-24T05:35:42.983Z,36.83
2024-04-24T05:38:11.077Z,35.90
2024-04-24T05:40:39.288Z,35.50
2024-04-24T05:43:07.576Z,36.94
2024-04-24T05:45:36.002Z,37.01
2024-04-24T05:48:04.757Z,36.32
2024-04-24T05:50:32.521Z,36.13
2024-04-24T05:53:00.496Z,35.78
2024-04-24T05:55:28.444Z,35.67
2024-04-24T05:57:56.436Z,34.95
2024-04-24T06:00:24.618Z,34.69
2024-04-24T06:02:52.945Z,34.21
2024-04-24T06:05:20.865Z,34.18
2024-04-24T06:07:48.918Z,33.35
2024-04-24T06:10:17.004Z,33.29
2024-04-24T06:12:44.982Z,32.86
2024-04-24T06:15:12.882Z,32.47
2024-04-24T06:17:40.832Z,32.87
2024-04-24T06:20:09.304Z,32.10
2024-04-24T06:22:37.184Z,31.98
2024-04-24T06:25:05.328Z,31.46
2024-04-24T06:27:33.250Z,30.88
2024-04-24T06:30:01.271Z,30.82
2024-04-24T06:32:31.757Z,30.43
2024-04-24T06:35:01.151Z,29.32
2024-04-24T06:37:29.355Z,29.28
2024-04-24T06:39:57.206Z,29.05
2024-04-24T06:42:25.717Z,28.53
2024-04-24T06:44:53.686Z,29.03
2024-04-24T06:47:21.726Z,28.44
2024-04-24T06:49:49.539Z,27.86
2024-04-24T06:52:17.632Z,27.94
2024-04-24T06:54:45.964Z,27.49
2024-04-24T06:57:14.992Z,27.31
2024-04-24T06:59:43.039Z,26.16
2024-04-24T07:02:11.114Z,25.37
2024-04-24T07:04:39.378Z,25.59
2024-04-24T07:07:07.822Z,25.30
2024-04-24T07:09:35.895Z,24.90
2024-04-24T07:12:04.211Z,25.06
2024-04-24T07:14:32.268Z,24.54
2024-04-24T07:17:00.374Z,24.63
2024-04-24T07:19:28.641Z,22.85
2024-04-24T07:21:56.822Z,23.03
2024-04-24T07:24:26.880Z,23.41
2024-04-24T07:26:54.927Z,22.95
2024-04-24T07:29:23.110Z,22.83
2024-04-24T07:31:51.407Z,22.72
2024-04-24T07:34:19.507Z,22.11
2024-04-24T07:36:47.348Z,22.13
2024-04-24T07:39:15.320Z,21.65
2024-04-24T07:41:43.773Z,20.81
2024-04-24T07:44:12.104Z,20.64
2024-04-24T07:46:40.323Z,21.28
2024-04-24T07:49:08.118Z,21.01
2024-04-24T07:51:36.189Z,22.10
2024-04-24T07:54:04.489Z,21.24
2024-04-24T07:56:32.519Z,21.50
2024-04-24T07:59:00.471Z,21.46
2024-04-24T08:01:28.521Z,21.64
2024-04-24T08:03:56.538Z,21.31
2024-04-24T08:06:24.937Z,21.44
2024-04-24T08:08:54.732Z,22.68
2024-04-24T08:11:24.209Z,21.73
2024-04-24T08:13:52.241Z,21.71
2024-04-24T08:16:20.227Z,20.35
2024-04-24T08:18:51.367Z,20.48
2024-04-24T08:21:19.589Z,21.69
2024-04-24T08:23:47.721Z,21.53
2024-04-24T08:26:16.167Z,21.75
2024-04-24T08:28:44.556Z,20.48
2024-04-24T08:31:12.481Z,19.98
2024-04-24T08:33:40.635Z,20.87
2024-04-24T08:36:15.494Z,21.89
2024-04-24T08:38:43.574Z,21.51
2024-04-24T08:41:13.982Z,20.69
2024-04-24T08:43:43.840Z,20.67
2024-04-24T08:46:12.816Z,21.23
2024-04-24T08:48:42.764Z,20.42
2024-04-24T08:51:12.922Z,21.58
2024-04-24T08:54:04.940Z,20.54
2024-04-24T08:56:43.547Z,21.13
2024-04-24T08:59:28.321Z,22.05
2024-04-24T09:02:16.121Z,21.44
2024-04-24T09:04:46.140Z,21.29
2024-04-24T09:07:17.009Z,21.26
2024-04-24T09:09:48.428Z,20.65
2024-04-24T09:12:17.759Z,21.09
2024-04-24T09:14:47.666Z,20.35
2024-04-24T09:17:15.998Z,20.36
2024-04-24T09:19:44.157Z,20.03
2024-04-24T09:22:12.166Z,19.90
2024-04-24T09:24:40.192Z,20.26
2024-04-24T09:27:09.051Z,20.37
2024-04-24T09:29:37.456Z,21.22
2024-04-24T09:32:06.047Z,21.27
2024-04-24T09:34:34.485Z,21.13
2024-04-24T09:37:04.332Z,21.36
2024-04-24T09:39:33.938Z,22.42
2024-04-24T09:42:01.997Z,22.41
2024-04-24T09:44:32.174Z,22.33
2024-04-24T09:47:00.627Z,21.38
2024-04-24T09:49:28.519Z,21.45
2024-04-24T09:51:56.597Z,22.24
2024-04-24T09:54:25.279Z,23.21
2024-04-24T09:56:59.775Z,22.91
2024-04-24T09:59:31.248Z,22.54
2024-04-24T10:02:07.030Z,23.52
2024-04-24T10:04:39.229Z,23.90
2024-04-24T10:07:11.507Z,23.99
2024-04-24T10:09:45.365Z,23.33
2024-04-24T10:12:27.680Z,23.04
2024-04-24T10:15:13.980Z,22.07
2024-04-24T10:17:43.723Z,21.37
2024-04-24T10:20:19.814Z,21.41
2024-04-24T10:22:55.266Z,20.18
2024-04-24T10:25:24.329Z,20.96
2024-04-24T10:27:53.452Z,20.25
2024-04-24T10:30:24.277Z,19.30
2024-04-24T10:32:52.399Z,19.16
2024-04-24T10:35:22.829Z,19.12
2024-04-24T10:37:58.053Z,19.19
2024-04-24T10:40:29.768Z,19.14
2024-04-24T10:43:01.226Z,19.56
2024-04-24T10:45:30.240Z,18.53
2024-04-24T10:47:59.825Z,18.93
2024-04-24T10:50:29.831Z,19.53
2024-04-24T10:52:59.504Z,18.65
2024-04-24T10:55:27.519Z,19.06
2024-04-24T10:57:57.318Z,19.45
2024-04-24T11:00:27.178Z,20.28
2024-04-24T11:02:59.073Z,20.18
2024-04-24T11:05:36.123Z,19.78
2024-04-24T11:08:06.458Z,19.23
2024-04-24T11:10:35.260Z,19.00
2024-04-24T11:13:16.838Z,20.68
2024-04-24T11:15:54.283Z,20.31
2024-04-24T11:18:27.100Z,20.37
2024-04-24T11:20:55.885Z,20.15
2024-04-24T11:23:23.836Z,19.96
2024-04-24T11:25:58.837Z,18.99
2024-04-24T11:28:29.791Z,18.56
2024-04-24T11:30:59.044Z,17.53
2024-04-24T11:33:28.012Z,17.13
2024-04-24T11:35:57.023Z,17.57
2024-04-24T11:38:25.041Z,17.93
2024-04-24T11:40:53.168Z,18.44
2024-04-24T11:43:22.454Z,16.23
2024-04-24T11:45:50.500Z,16.24
2024-04-24T11:48:34.101Z,15.38
2024-04-24T11:51:09.107Z,16.25
2024-04-24T11:53:37.462Z,15.42
2024-04-24T11:56:08.648Z,16.52
2024-04-24T11:58:37.851Z,16.83
2024-04-24T12:01:07.387Z,18.15
2024-04-24T12:03:35.694Z,19.25
2024-04-24T12:06:04.678Z,19.21
2024-04-24T12:08:33.274Z,19.34
2024-04-24T12:11:04.470Z,19.20
2024-04-24T12:13:34.289Z,19.50
2024-04-24T12:16:04.066Z,19.25
2024-04-24T12:18:33.134Z,18.36
2024-04-24T12:21:02.698Z,18.55
2024-04-24T12:23:33.014Z,18.48
2024-04-24T12:26:00.683Z,18.02
2024-04-24T12:28:28.496Z,17.85
2024-04-24T12:30:59.604Z,18.40
2024-04-24T12:33:29.292Z,18.17
2024-04-24T12:35:59.175Z,16.96
2024-04-24T12:38:27.338Z,18.06
2024-04-24T12:40:55.285Z,17.72
2024-04-24T12:43:23.304Z,16.51
2024-04-24T12:45:51.335Z,17.32
2024-04-24T12:48:19.599Z,18.40
2024-04-24T12:50:47.545Z,19.83
2024-04-24T12:53:15.750Z,19.60
2024-04-24T12:55:43.685Z,20.01
2024-04-24T12:58:15.164Z,19.91
2024-04-24T13:00:43.084Z,20.10
2024-04-24T13:03:11.014Z,20.01
2024-04-24T13:05:39.526Z,20.06
2024-04-24T13:08:09.783Z,20.21
2024-04-24T13:10:38.141Z,19.86
2024-04-24T13:13:05.968Z,21.22
2024-04-24T13:15:33.794Z,22.64
2024-04-24T13:18:02.038Z,23.34
2024-04-24T13:20:30.928Z,24.24
2024-04-24T13:22:59.458Z,26.07
2024-04-24T13:25:27.459Z,26.37
2024-04-24T13:27:55.410Z,27.06
2024-04-24T13:30:23.278Z,27.02
2024-04-24T13:32:51.748Z,27.98
2024-04-24T13:35:19.941Z,27.84
2024-04-24T13:37:47.962Z,28.31
2024-04-24T13:40:15.846Z,28.30
2024-04-24T13:42:43.801Z,28.51
2024-04-24T13:45:11.869Z,28.38
2024-04-24T13:47:40.532Z,28.59
2024-04-24T13:50:12.586Z,28.15
2024-04-24T13:52:41.024Z,29.76
2024-04-24T13:55:09.094Z,29.62
2024-04-24T13:57:37.520Z,28.85
2024-04-24T14:00:06.476Z,29.72
2024-04-24T14:02:41.544Z,29.24
2024-04-24T14:05:12.227Z,29.54
2024-04-24T14:07:40.378Z,29.84
2024-04-24T14:10:08.557Z,30.08
2024-04-24T14:12:36.588Z,30.05
2024-04-24T14:15:05.013Z,28.84
2024-04-24T14:17:34.971Z,27.67
2024-04-24T14:20:03.226Z,27.43
2024-04-24T14:22:31.653Z,26.35
2024-04-24T14:24:59.569Z,26.08
2024-04-24T14:27:27.611Z,26.24
2024-04-24T14:29:55.933Z,26.36
2024-04-24T14:32:23.961Z,26.31
2024-04-24T14:34:51.973Z,26.92
2024-04-24T14:37:19.912Z,27.86
2024-04-24T14:39:48.020Z,27.79
2024-04-24T14:42:16.317Z,28.30
2024-04-24T14:44:44.197Z,29.04
2024-04-24T14:47:12.239Z,30.28
2024-04-24T14:49:41.154Z,31.04
2024-04-24T14:52:09.492Z,31.19
2024-04-24T14:54:37.501Z,32.30
2024-04-24T14:57:05.606Z,32.34
2024-04-24T14:59:33.603Z,32.70
2024-04-24T15:02:02.029Z,32.58
2024-04-24T15:04:30.331Z,32.98
2024-04-24T15:07:12.069Z,33.16
2024-04-24T15:09:40.688Z,33.21
2024-04-24T15:12:08.883Z,33.86
2024-04-24T15:14:36.892Z,33.62
2024-04-24T15:17:05.028Z,34.18
2024-04-24T15:19:33.518Z,34.47
2024-04-24T15:22:01.526Z,34.76
2024-04-24T15:24:29.487Z,34.72
2024-04-24T15:26:57.267Z,35.50
2024-04-24T15:29:25.580Z,35.01
2024-04-24T15:31:53.581Z,35.48
2024-04-24T15:34:24.106Z,35.29
2024-04-24T15:36:52.879Z,35.50
2024-04-24T15:39:21.177Z,35.84
2024-04-24T15:41:51.024Z,36.10
2024-04-24T15:44:19.213Z,36.44
2024-04-24T15:46:47.055Z,36.57
2024-04-24T15:49:15.387Z,36.64
2024-04-24T15:51:43.252Z,36.86
2024-04-24T15:54:11.050Z,36.84
2024-04-24T15:56:39.160Z,36.87
2024-04-24T15:59:07.134Z,37.46
2024-04-24T16:01:35.225Z,37.65
2024-04-24T16:04:04.547Z,38.10
2024-04-24T16:06:32.596Z,38.04
2024-04-24T16:09:00.880Z,38.33
2024-04-24T16:11:28.944Z,38.46
2024-04-24T16:13:57.441Z,38.31
2024-04-24T16:16:25.823Z,38.77
2024-04-24T16:18:54.054Z,39.06
2024-04-24T16:21:22.163Z,39.11
2024-04-24T16:23:50.056Z,39.54
2024-04-24T16:26:18.394Z,39.80
2024-04-24T16:28:46.479Z,39.92
2024-04-24T16:31:14.703Z,40.20
2024-04-24T16:33:42.721Z,40.39
2024-04-24T16:36:11.769Z,40.84
2024-04-24T16:38:39.953Z,41.24
2024-04-24T16:41:08.817Z,41.54
2024-04-24T16:43:37.019Z,41.66
2024-04-24T16:46:05.314Z,41.80
2024-04-24T16:48:33.563Z,42.27
2024-04-24T16:51:01.867Z,42.40
2024-04-24T16:53:30.117Z,42.08
2024-04-24T16:55:58.937Z,42.71
2024-04-24T16:58:27.072Z,43.01
2024-04-24T17:00:54.896Z,43.23
2024-04-24T17:03:23.201Z,43.42
2024-04-24T17:05:51.166Z,43.59
2024-04-24T17:08:18.985Z,43.79
2024-04-24T17:10:46.956Z,44.08
2024-04-24T17:13:14.807Z,44.16
2024-04-24T17:15:43.591Z,44.38
2024-04-24T17:18:12.279Z,44.69
2024-04-24T17:20:40.455Z,44.67
2024-04-24T17:23:08.372Z,44.88
2024-04-24T17:25:36.386Z,45.07
2024-04-24T17:28:04.494Z,45.44
2024-04-24T17:30:32.607Z,45.43
2024-04-24T17:33:00.845Z,45.83
2024-04-24T17:35:29.004Z,45.83
2024-04-24T17:37:59.360Z,46.21
2024-04-24T17:40:27.674Z,46.26
2024-04-24T17:42:55.484Z,46.39
2024-04-24T17:45:23.506Z,46.63
2024-04-24T17:47:51.535Z,47.13
2024-04-24T17:50:24.998Z,46.64
2024-04-24T17:52:53.651Z,46.98
2024-04-24T17:55:21.672Z,47.36
2024-04-24T17:57:49.481Z,47.20
2024-04-24T18:00:18.338Z,47.40
2024-04-24T18:02:47.521Z,47.90
2024-04-24T18:05:15.602Z,47.91
2024-04-24T18:07:43.610Z,47.83
2024-04-24T18:10:11.742Z,47.95
2024-04-24T18:12:40.344Z,48.29
2024-04-24T18:15:08.563Z,48.26
2024-04-24T18:17:36.638Z,48.79
2024-04-24T18:20:05.707Z,49.04
2024-04-24T18:22:33.734Z,49.18
2024-04-24T18:25:01.998Z,49.49
2024-04-24T18:27:31.296Z,49.35
2024-04-24T18:29:59.436Z,49.50
2024-04-24T18:32:28.965Z,49.63
2024-04-24T18:34:57.213Z,49.95
2024-04-24T18:37:26.019Z,50.16
2024-04-24T18:39:53.957Z,50.59
2024-04-24T18:42:21.888Z,50.67
2024-04-24T18:44:49.894Z,50.71
2024-04-24T18:47:20.334Z,50.90
2024-04-24T18:49:48.511Z,50.94
2024-04-24T18:52:16.832Z,51.47
2024-04-24T18:54:44.640Z,51.40
2024-04-24T18:57:12.794Z,51.69
2024-04-24T18:59:41.198Z,51.70
2024-04-24T19:02:09.207Z,52.10
2024-04-24T19:04:37.227Z,52.43
2024-04-24T19:07:05.473Z,52.50
2024-04-24T19:09:33.923Z,52.73
2024-04-24T19:12:04.642Z,52.74
2024-04-24T19:14:32.741Z,53.08
2024-04-24T19:17:00.801Z,52.51
2024-04-24T19:19:29.036Z,52.79
2024-04-24T19:21:57.305Z,52.84
2024-04-24T19:24:25.157Z,52.57
2024-04-24T19:26:53.171Z,52.30
2024-04-24T19:29:21.332Z,52.47
2024-04-24T19:31:49.429Z,52.09
2024-04-24T19:34:17.461Z,52.10
2024-04-24T19:36:45.536Z,52.31
2024-04-24T19:39:13.619Z,51.96
2024-04-24T19:41:41.648Z,51.94
2024-04-24T19:44:09.778Z,52.17
2024-04-24T19:46:37.828Z,51.93
2024-04-24T19:49:05.913Z,52.00
2024-04-24T19:51:33.845Z,51.99
2024-04-24T19:54:01.780Z,51.84
2024-04-24T19:56:29.874Z,52.10
2024-04-24T19:58:57.922Z,52.29
2024-04-24T20:01:25.934Z,52.09
2024-04-24T20:03:54.021Z,52.14
2024-04-24T20:06:22.912Z,52.11
2024-04-24T20:08:51.372Z,52.41
2024-04-24T20:11:19.577Z,52.33
2024-04-24T20:13:47.527Z,52.26
2024-04-24T20:16:17.551Z,52.46
2024-04-24T20:18:45.912Z,52.46
2024-04-24T20:21:15.344Z,52.77
2024-04-24T20:23:43.849Z,52.50
2024-04-24T20:26:18.649Z,52.50
2024-04-24T20:28:46.667Z,52.85
2024-04-24T20:31:28.208Z,52.70
2024-04-24T20:33:58.126Z,53.04
2024-04-24T20:36:27.847Z,52.99
2024-04-24T20:38:58.271Z,52.79
2024-04-24T20:41:26.146Z,52.98
2024-04-24T20:43:54.159Z,53.31
2024-04-24T20:46:22.705Z,52.70
2024-04-24T20:48:50.670Z,53.25
2024-04-24T20:51:19.130Z,53.51
2024-04-24T20:53:47.372Z,53.17
2024-04-24T20:56:18.696Z,53.51
2024-04-24T20:58:47.176Z,53.35
2024-04-24T21:01:16.352Z,53.68
2024-04-24T21:03:44.539Z,53.49
2024-04-24T21:06:14.686Z,53.82
2024-04-24T21:08:45.035Z,54.08
2024-04-24T21:11:21.521Z,54.14
2024-04-24T21:13:50.076Z,53.65
2024-04-24T21:16:18.048Z,53.99
2024-04-24T21:18:46.223Z,53.56
2024-04-24T21:21:17.172Z,53.65
2024-04-24T21:23:45.129Z,53.58
2024-04-24T21:26:13.793Z,53.25
2024-04-24T21:28:41.686Z,53.18
2024-04-24T21:31:09.731Z,53.21
2024-04-24T21:33:38.130Z,53.03
2024-04-24T21:36:06.766Z,53.11
2024-04-24T21:38:38.397Z,53.73
2024-04-24T21:41:19.749Z,53.66
2024-04-24T21:43:49.165Z,53.38
2024-04-24T21:46:19.102Z,53.56
2024-04-24T21:48:48.066Z,53.46
2024-04-24T21:51:16.045Z,53.16
2024-04-24T21:53:44.105Z,53.34
2024-04-24T21:56:12.142Z,53.58
2024-04-24T21:58:42.967Z,53.64
2024-04-24T22:01:17.996Z,53.47
2024-04-24T22:03:46.410Z,53.24
2024-04-24T22:06:20.609Z,53.57
2024-04-24T22:08:49.745Z,53.40
2024-04-24T22:11:19.170Z,53.32
2024-04-24T22:13:47.536Z,53.71
2024-04-24T22:16:15.508Z,53.81
2024-04-24T22:18:44.664Z,54.34
2024-04-24T22:21:12.777Z,54.88
2024-04-24T22:23:40.811Z,54.99
2024-04-24T22:26:09.171Z,54.96
2024-04-24T22:28:37.118Z,54.80
2024-04-24T22:31:07.662Z,54.77
2024-04-24T22:33:40.632Z,54.74
2024-04-24T22:36:10.023Z,54.71
2024-04-24T22:38:38.037Z,54.67
2024-04-24T22:41:06.188Z,54.85
2024-04-24T22:43:33.998Z,55.34
2024-04-24T22:46:02.633Z,55.70
2024-04-24T22:48:30.949Z,56.21
2024-04-24T22:50:59.266Z,56.26
2024-04-24T22:53:27.170Z,56.52
2024-04-24T22:55:55.122Z,57.26
2024-04-24T22:58:22.963Z,57.51
2024-04-24T23:00:50.892Z,57.93
2024-04-24T23:03:20.443Z,57.63
2024-04-24T23:05:48.526Z,57.75
2024-04-24T23:08:16.720Z,58.30
2024-04-24T23:10:45.979Z,58.42
2024-04-24T23:13:13.856Z,58.47
2024-04-24T23:15:41.952Z,58.61
2024-04-24T23:18:09.940Z,58.85
2024-04-24T23:20:38.014Z,59.18
2024-04-24T23:23:06.062Z,59.04
2024-04-24T23:25:34.341Z,59.50
2024-04-24T23:28:02.473Z,59.30
2024-04-24T23:30:30.406Z,59.15
2024-04-24T23:32:59.409Z,59.38
2024-04-24T23:35:27.395Z,59.17
2024-04-24T23:37:55.250Z,59.22
2024-04-24T23:40:23.222Z,59.34
2024-04-24T23:42:51.100Z,59.66
2024-04-24T23:45:19.142Z,59.70
2024-04-24T23:47:47.276Z,59.89
2024-04-24T23:50:15.401Z,60.19
2024-04-24T23:52:43.224Z,60.47
2024-04-24T23:55:11.087Z,61.03
2024-04-24T23:57:39.192Z,61.62
